Aurora, North Carolina
Current Conditions -  °F | °C
As of 12:54 AM on Tuesday 27 Jan 2015 (Local Time) from KEWN Reporting Station
Overcast Overcast  
Wind Chill:   Ceiling: 1600
Heat Index:   Visibility: 10mi
Dew Point:   Wind: 17mph
Humidity: 73%   Direction: 340°NNW
Pressure: 29.64"   Gusts: 22mph
Location:  35.31°N, 76.79°W
Report Text: KEWN 270554Z AUTO 34015G19KT 10SM OVC016 08/03 A2964 RMK AO2 SLP036 60000 T00780033 10100 20078 53007
Loading
Personal Weather Stations






























Interactive Weather Map New forecast layout! Learn more

10-Day Weather Forecast

Advertisements
Track Severe Weather on mobile